Time;durP1;ratioP1;P1;durP2;ratioP2;P2;SDS_P1;SDS_P2;PMS_P1;PMS_P2;Temp;Humidity;BMP_temperature;BMP_pressure;BME280_temperature;BME280_humidity;BME280_pressure;Samples;Min_cycle;Max_cycle;Signal;HPM_P1;HPM_P2
2020/12/21 00:02:06;;;;;;;15.10;5.13;;;;;;;5.02;100.00;101888.41;5196473;28;20057;-71
2020/12/21 00:04:37;;;;;;;16.30;5.25;;;;;;;5.01;100.00;101893.69;5197480;28;20035;-70
2020/12/21 00:07:08;;;;;;;14.35;5.57;;;;;;;5.00;100.00;101892.84;5196402;28;20057;-70
2020/12/21 00:09:40;;;;;;;23.67;5.68;;;;;;;5.01;100.00;101891.94;5199613;28;20376;-68
2020/12/21 00:12:11;;;;;;;14.88;5.43;;;;;;;4.98;100.00;101893.81;5194734;28;20036;-68
2020/12/21 00:14:42;;;;;;;17.45;5.38;;;;;;;4.95;100.00;101889.59;5197067;28;20026;-68
2020/12/21 00:17:14;;;;;;;17.98;5.43;;;;;;;4.94;100.00;101885.31;5197176;28;20033;-68
2020/12/21 00:19:45;;;;;;;14.77;5.03;;;;;;;4.96;100.00;101887.84;5197888;28;20026;-68
2020/12/21 00:22:19;;;;;;;17.98;5.38;;;;;;;4.95;100.00;101887.00;5199307;28;20034;-71
2020/12/21 00:24:50;;;;;;;11.68;4.82;;;;;;;4.93;100.00;101888.00;5198607;28;20034;-71
2020/12/21 00:27:22;;;;;;;13.77;4.85;;;;;;;4.91;100.00;101885.47;5198705;28;20252;-71
2020/12/21 00:29:53;;;;;;;12.50;4.45;;;;;;;4.94;100.00;101887.09;5198916;28;20040;-71
2020/12/21 00:32:24;;;;;;;14.55;4.90;;;;;;;4.92;100.00;101881.09;5198910;28;20022;-71
2020/12/21 00:34:56;;;;;;;15.20;4.72;;;;;;;4.93;100.00;101883.66;5197907;28;20030;-71
2020/12/21 00:37:27;;;;;;;13.80;4.85;;;;;;;4.92;100.00;101871.56;5198895;28;20050;-71
2020/12/21 00:39:58;;;;;;;13.73;5.32;;;;;;;4.94;100.00;101879.28;5198595;28;20042;-71
2020/12/21 00:42:29;;;;;;;18.75;5.15;;;;;;;4.92;100.00;101879.34;5199560;28;20026;-71
2020/12/21 00:45:01;;;;;;;17.20;4.78;;;;;;;4.94;100.00;101876.69;5204192;28;20022;-71
2020/12/21 00:47:33;;;;;;;16.88;4.85;;;;;;;4.91;100.00;101872.47;5197298;28;20121;-71
2020/12/21 00:50:05;;;;;;;16.40;4.70;;;;;;;4.92;100.00;101878.50;5198016;28;20026;-71
2020/12/21 00:52:36;;;;;;;12.80;4.95;;;;;;;4.93;100.00;101881.06;5202098;28;20038;-71
2020/12/21 00:55:08;;;;;;;18.20;5.30;;;;;;;4.92;100.00;101881.94;5218517;28;20057;-71
2020/12/21 00:57:39;;;;;;;19.05;5.30;;;;;;;4.90;100.00;101878.59;5196769;28;20101;-71
2020/12/21 01:00:10;;;;;;;21.98;4.63;;;;;;;4.94;100.00;101879.28;5189469;28;20026;-71
2020/12/21 01:02:41;;;;;;;17.23;4.95;;;;;;;4.91;100.00;101871.63;5180087;28;20026;-71
2020/12/21 01:05:12;;;;;;;19.85;5.43;;;;;;;4.93;100.00;101873.25;5185640;28;20440;-70
2020/12/21 01:07:44;;;;;;;15.80;4.72;;;;;;;4.90;100.00;101870.81;5199022;28;20019;-70
2020/12/21 01:10:15;;;;;;;14.85;4.70;;;;;;;4.92;100.00;101870.72;5198293;28;20053;-71
2020/12/21 01:12:46;;;;;;;24.65;5.78;;;;;;;4.93;100.00;101873.25;5192809;28;20015;-71
2020/12/21 01:15:18;;;;;;;16.35;4.65;;;;;;;4.91;100.00;101871.63;5206043;28;20038;-71
2020/12/21 01:17:49;;;;;;;15.27;4.50;;;;;;;4.90;100.00;101870.81;5199656;28;20304;-68
2020/12/21 01:20:20;;;;;;;21.38;5.18;;;;;;;4.88;100.00;101872.59;5202013;28;20544;-68
2020/12/21 01:22:51;;;;;;;15.93;5.07;;;;;;;4.85;100.00;101878.78;5206265;28;20482;-69
2020/12/21 01:25:23;;;;;;;12.05;4.60;;;;;;;4.81;100.00;101871.19;5222045;28;20478;-69
2020/12/21 01:27:54;;;;;;;15.50;4.97;;;;;;;4.83;100.00;101879.75;5211658;28;20458;-69
2020/12/21 01:30:25;;;;;;;13.80;4.38;;;;;;;4.81;100.00;101873.78;5202118;28;20512;-70
2020/12/21 01:32:57;;;;;;;20.35;5.20;;;;;;;4.77;100.00;101859.25;5210995;28;20023;-70
2020/12/21 01:35:28;;;;;;;17.77;4.60;;;;;;;4.78;100.00;101864.41;5202039;28;20081;-69
2020/12/21 01:37:59;;;;;;;21.08;5.47;;;;;;;4.79;100.00;101871.25;5202311;28;20058;-70
2020/12/21 01:40:31;;;;;;;15.77;4.55;;;;;;;4.77;100.00;101875.69;5207748;28;20084;-70
2020/12/21 01:43:02;;;;;;;18.38;5.05;;;;;;;4.74;100.00;101868.03;5202036;28;20050;-70
2020/12/21 01:45:33;;;;;;;17.02;4.63;;;;;;;4.75;100.00;101866.28;5201468;28;20036;-69
2020/12/21 01:48:05;;;;;;;20.38;5.18;;;;;;;4.75;100.00;101866.28;5200617;28;20503;-69
2020/12/21 01:50:36;;;;;;;19.67;5.70;;;;;;;4.73;100.00;101870.69;5202244;28;20023;-70
2020/12/21 01:53:10;;;;;;;19.85;4.70;;;;;;;4.69;100.00;101866.53;5201498;28;20022;-69
2020/12/21 01:55:42;;;;;;;16.75;5.03;;;;;;;4.63;100.00;101863.31;5221505;28;20116;-70
2020/12/21 01:58:14;;;;;;;14.85;5.45;;;;;;;4.67;100.00;101871.81;5222420;28;20025;-69
2020/12/21 02:00:45;;;;;;;18.17;4.43;;;;;;;4.66;100.00;101866.66;5212307;28;20472;-70
2020/12/21 02:03:16;;;;;;;13.65;4.82;;;;;;;4.64;100.00;101866.75;5218335;28;20480;-69
2020/12/21 02:05:47;;;;;;;17.58;5.03;;;;;;;4.61;100.00;101866.88;5201559;28;20022;-69
2020/12/21 02:08:19;;;;;;;12.85;4.18;;;;;;;4.59;100.00;101863.53;5201441;28;20447;-69
2020/12/21 02:10:50;;;;;;;16.67;5.05;;;;;;;4.57;100.00;101868.75;5200142;28;20387;-69
2020/12/21 02:13:21;;;;;;;17.40;4.80;;;;;;;4.54;100.00;101863.69;5189380;28;20565;-69
2020/12/21 02:15:54;;;;;;;16.63;4.85;;;;;;;4.52;100.00;101867.28;5201249;28;20199;-69
2020/12/21 02:18:25;;;;;;;18.67;5.22;;;;;;;4.52;100.00;101872.47;5199118;28;20026;-68
2020/12/21 02:20:56;;;;;;;11.98;4.93;;;;;;;4.50;100.00;101869.09;5200290;28;20030;-69
2020/12/21 02:23:27;;;;;;;13.63;5.20;;;;;;;4.48;100.00;101876.97;5200560;28;20030;-68
2020/12/21 02:25:59;;;;;;;13.48;4.88;;;;;;;4.49;100.00;101873.44;5200967;28;20030;-69
2020/12/21 02:28:30;;;;;;;14.93;5.90;;;;;;;4.45;100.00;101869.28;5200141;28;20023;-69
2020/12/21 02:31:01;;;;;;;12.90;4.90;;;;;;;4.47;100.00;101877.00;5215807;28;20597;-69
2020/12/21 02:33:33;;;;;;;18.83;5.70;;;;;;;4.38;100.00;101863.50;5216436;28;20022;-69
2020/12/21 02:36:05;;;;;;;17.45;5.00;;;;;;;4.42;100.00;101861.63;5200970;28;20041;-69
2020/12/21 02:38:37;;;;;;;13.73;5.10;;;;;;;4.36;100.00;101865.34;5207438;28;20430;-69
2020/12/21 02:41:12;;;;;;;23.85;5.38;;;;;;;4.36;100.00;101857.56;5221464;28;20037;-69
2020/12/21 02:43:44;;;;;;;15.63;5.28;;;;;;;4.35;100.00;101865.41;5217448;28;20022;-68
2020/12/21 02:46:16;;;;;;;19.02;6.10;;;;;;;4.34;100.00;101867.16;5199921;28;20044;-69
2020/12/21 02:48:48;;;;;;;26.52;5.63;;;;;;;4.31;100.00;101858.66;5200811;28;20391;-69
2020/12/21 02:51:19;;;;;;;18.70;5.75;;;;;;;4.28;100.00;101851.88;5200771;28;20027;-69
2020/12/21 02:53:50;;;;;;;19.35;6.43;;;;;;;4.26;100.00;101852.81;5207623;28;20115;-69
2020/12/21 02:56:21;;;;;;;18.42;6.35;;;;;;;4.22;100.00;101846.94;5200734;28;20027;-69
2020/12/21 02:58:53;;;;;;;26.27;6.95;;;;;;;4.21;100.00;101852.19;5200196;28;20037;-69
2020/12/21 03:01:24;;;;;;;16.20;5.82;;;;;;;4.17;100.00;101848.88;5194888;28;20014;-69
2020/12/21 03:03:55;;;;;;;16.02;5.95;;;;;;;4.18;100.00;101849.72;5182710;28;20038;-70
2020/12/21 03:06:26;;;;;;;17.88;5.78;;;;;;;4.15;100.00;101848.09;5179100;28;20081;-69
2020/12/21 03:08:58;;;;;;;19.40;5.70;;;;;;;4.14;100.00;101843.81;5186450;28;20030;-69
2020/12/21 03:11:29;;;;;;;10.13;5.70;;;;;;;4.11;100.00;101833.56;5193335;28;20034;-69
2020/12/21 03:14:00;;;;;;;18.50;6.65;;;;;;;4.10;100.00;101837.91;5199487;28;20023;-70
2020/12/21 03:16:31;;;;;;;16.10;5.93;;;;;;;4.08;100.00;101841.47;5190796;28;20117;-69
2020/12/21 03:19:04;;;;;;;11.63;4.93;;;;;;;4.06;100.00;101841.53;5179700;28;20015;-69
2020/12/21 03:21:36;;;;;;;18.42;5.70;;;;;;;4.06;100.00;101849.31;5198318;28;20030;-69
2020/12/21 03:24:07;;;;;;;19.45;5.25;;;;;;;4.08;100.00;101857.88;5201149;28;20045;-69
2020/12/21 03:26:38;;;;;;;16.20;5.20;;;;;;;4.08;100.00;101857.88;5194544;28;20030;-69
2020/12/21 03:29:09;;;;;;;17.77;6.68;;;;;;;4.07;100.00;101848.41;5180842;28;20023;-69
2020/12/21 03:31:41;;;;;;;18.00;5.55;;;;;;;4.07;100.00;101845.81;5198591;28;20030;-69
2020/12/21 03:34:16;;;;;;;14.77;5.25;;;;;;;4.08;100.00;101846.66;5198447;28;20062;-69
2020/12/21 03:36:47;;;;;;;15.00;5.43;;;;;;;4.07;100.00;101840.63;5200657;28;20045;-69
2020/12/21 03:39:18;;;;;;;18.83;6.03;;;;;;;4.07;100.00;101840.63;5215460;28;20030;-69
2020/12/21 03:41:49;;;;;;;12.60;5.55;;;;;;;4.05;100.00;101846.78;5207517;28;20066;-69
2020/12/21 03:44:21;;;;;;;13.13;4.97;;;;;;;4.04;100.00;101842.50;5207395;28;20126;-70
2020/12/21 03:46:52;;;;;;;20.00;5.45;;;;;;;4.08;100.00;101846.66;5214382;28;20031;-69
2020/12/21 03:49:23;;;;;;;20.77;5.80;;;;;;;4.07;100.00;101843.22;5213792;28;20087;-69
2020/12/21 03:51:55;;;;;;;13.73;4.97;;;;;;;4.09;100.00;101836.22;5220064;28;20572;-69
2020/12/21 03:54:26;;;;;;;15.18;4.30;;;;;;;4.11;100.00;101837.00;5210427;28;20037;-68
2020/12/21 03:56:57;;;;;;;14.60;4.50;;;;;;;4.09;100.00;101835.38;5199817;28;20054;-69
2020/12/21 03:59:28;;;;;;;10.20;4.30;;;;;;;4.10;100.00;101835.31;5198307;28;20033;-69
2020/12/21 04:02:00;;;;;;;16.63;4.53;;;;;;;4.10;100.00;101818.91;5194734;28;20034;-69
2020/12/21 04:04:31;;;;;;;18.30;4.80;;;;;;;4.10;100.00;101811.13;5198983;28;20080;-69
2020/12/21 04:07:02;;;;;;;17.52;4.70;;;;;;;4.12;100.00;101812.75;5199465;28;20472;-69
2020/12/21 04:09:33;;;;;;;14.07;4.05;;;;;;;4.14;100.00;101810.94;5213917;28;20057;-70
2020/12/21 04:12:05;;;;;;;14.15;3.85;;;;;;;4.15;100.00;101816.97;5197891;28;20031;-69
2020/12/21 04:14:36;;;;;;;17.80;3.95;;;;;;;4.16;100.00;101810.84;5192896;28;20423;-69
2020/12/21 04:17:08;;;;;;;14.85;3.90;;;;;;;4.17;100.00;101811.69;5207984;28;20025;-69
2020/12/21 04:19:39;;;;;;;13.25;4.55;;;;;;;4.18;100.00;101814.25;5211052;28;20060;-69
2020/12/21 04:22:10;;;;;;;15.20;4.05;;;;;;;4.17;100.00;101798.72;5198670;28;20484;-69
2020/12/21 04:24:41;;;;;;;13.20;3.63;;;;;;;4.19;100.00;101800.38;5198683;28;20038;-69
2020/12/21 04:27:13;;;;;;;18.13;4.38;;;;;;;4.20;100.00;101801.19;5218754;28;20030;-69
2020/12/21 04:29:44;;;;;;;17.60;4.53;;;;;;;4.18;100.00;101800.44;5197869;28;20514;-69
2020/12/21 04:32:15;;;;;;;18.40;4.63;;;;;;;4.19;100.00;101805.56;5199177;28;20133;-69
2020/12/21 04:34:46;;;;;;;14.65;3.88;;;;;;;4.23;100.00;101796.72;5197853;28;20038;-68
2020/12/21 04:37:18;;;;;;;17.05;4.38;;;;;;;4.20;100.00;101790.81;5197603;28;20086;-69
2020/12/21 04:39:49;;;;;;;16.83;3.47;;;;;;;4.22;100.00;101792.47;5199048;28;20033;-69
2020/12/21 04:42:24;;;;;;;15.65;3.97;;;;;;;4.25;100.00;101791.50;5201928;28;20109;-69
2020/12/21 04:44:55;;;;;;;13.60;4.05;;;;;;;4.26;100.00;101788.81;5217067;28;20025;-69
2020/12/21 04:47:27;;;;;;;17.20;3.92;;;;;;;4.27;100.00;101787.91;5212973;28;20030;-70
2020/12/21 04:49:59;;;;;;;16.58;3.72;;;;;;;4.29;100.00;101777.47;5198425;28;20026;-69
2020/12/21 04:52:30;;;;;;;12.65;4.05;;;;;;;4.29;100.00;101773.13;5202876;28;20029;-70
2020/12/21 04:55:03;;;;;;;13.85;3.92;;;;;;;4.31;100.00;101773.03;5178194;28;20034;-69
2020/12/21 04:57:34;;;;;;;13.82;4.05;;;;;;;4.34;100.00;101778.09;5178234;28;20031;-69
2020/12/21 05:00:06;;;;;;;15.00;3.75;;;;;;;4.36;100.00;101765.94;5189324;28;20502;-71
2020/12/21 05:02:39;;;;;;;15.57;3.85;;;;;;;4.40;100.00;101764.88;5206277;28;20154;-69
2020/12/21 05:05:11;;;;;;;13.75;3.85;;;;;;;4.39;100.00;101753.66;5194512;28;20030;-69
2020/12/21 05:07:42;;;;;;;12.50;3.80;;;;;;;4.41;100.00;101763.13;5183542;28;20042;-69
2020/12/21 05:10:13;;;;;;;16.60;4.03;;;;;;;4.44;100.00;101760.41;5198293;28;20181;-69
2020/12/21 05:12:44;;;;;;;16.58;4.20;;;;;;;4.44;100.00;101761.25;5198213;28;20018;-69
2020/12/21 05:15:19;;;;;;;18.80;4.60;;;;;;;4.46;100.00;101754.22;5182229;28;20029;-69
2020/12/21 05:18:01;;;;;;;13.27;3.70;;;;;;;4.48;100.00;101751.56;5178768;28;20030;-69
2020/12/21 05:20:40;;;;;;;21.98;5.07;;;;;;;4.51;100.00;101754.00;5179537;28;20027;-69
2020/12/21 05:23:16;;;;;;;18.83;4.45;;;;;;;4.52;100.00;101748.75;5198433;28;20234;-70
2020/12/21 05:25:57;;;;;;;12.27;3.63;;;;;;;4.56;100.00;101746.88;5200778;28;20034;-70
2020/12/21 05:28:31;;;;;;;16.77;4.15;;;;;;;4.56;100.00;101750.31;5206934;28;20034;-69
2020/12/21 05:31:07;;;;;;;14.43;4.00;;;;;;;4.59;100.00;101752.75;5203176;28;20057;-69
2020/12/21 05:33:43;;;;;;;17.08;4.38;;;;;;;4.62;100.00;101742.25;5198635;28;20088;-69
2020/12/21 05:36:23;;;;;;;19.65;4.68;;;;;;;4.64;100.00;101732.63;5197224;28;20026;-69
2020/12/21 05:38:56;;;;;;;12.25;3.53;;;;;;;4.63;100.00;101740.50;5205610;28;20475;-69
2020/12/21 05:41:28;;;;;;;14.90;3.85;;;;;;;4.66;100.00;101736.91;5197726;28;20156;-69
2020/12/21 05:44:05;;;;;;;15.45;3.70;;;;;;;4.69;100.00;101734.16;5201644;28;20405;-70
2020/12/21 05:46:37;;;;;;;15.77;4.35;;;;;;;4.69;100.00;101732.41;5198960;28;20030;-69
2020/12/21 05:49:08;;;;;;;13.73;3.97;;;;;;;4.73;100.00;101733.09;5198318;28;20023;-69
2020/12/21 05:51:47;;;;;;;18.08;4.28;;;;;;;4.76;100.00;101732.97;5197492;28;20046;-69
2020/12/21 05:54:19;;;;;;;16.02;4.03;;;;;;;4.77;100.00;101732.06;5203754;28;20037;-69
2020/12/21 05:56:51;;;;;;;12.15;4.22;;;;;;;4.77;100.00;101739.84;5197333;28;20034;-70
2020/12/21 05:59:23;;;;;;;10.98;3.25;;;;;;;4.79;100.00;101735.44;5197686;28;20033;-69
2020/12/21 06:01:59;;;;;;;9.60;3.83;;;;;;;4.82;100.00;101737.91;5185335;28;20027;-69
2020/12/21 06:04:39;;;;;;;13.00;3.78;;;;;;;4.86;100.00;101727.28;5193262;28;20313;-69
2020/12/21 06:07:12;;;;;;;15.57;3.90;;;;;;;4.86;100.00;101722.09;5201514;28;20442;-70
2020/12/21 06:09:47;;;;;;;14.10;3.88;;;;;;;4.83;100.00;101730.03;5205695;28;20053;-69
2020/12/21 06:12:22;;;;;;;20.92;3.95;;;;;;;4.89;100.00;101731.50;5207824;28;20031;-69
2020/12/21 06:14:57;;;;;;;16.17;4.28;;;;;;;4.90;100.00;101737.53;5193718;28;20053;-69
2020/12/21 06:17:30;;;;;;;20.98;4.57;;;;;;;4.93;100.00;101730.44;5204600;28;20033;-69
2020/12/21 06:20:10;;;;;;;11.57;3.73;;;;;;;4.94;100.00;101729.53;5200002;28;20057;-69
2020/12/21 06:22:41;;;;;;;18.23;4.55;;;;;;;4.96;100.00;101730.28;5201793;28;20026;-69
2020/12/21 06:25:23;;;;;;;13.82;4.18;;;;;;;4.99;100.00;101740.53;5205761;28;20032;-70
2020/12/21 06:27:55;;;;;;;13.32;4.07;;;;;;;4.97;100.00;101728.53;5200327;28;20639;-70
2020/12/21 06:30:30;;;;;;;11.55;4.05;;;;;;;5.01;100.00;101730.09;5196563;28;20026;-69
2020/12/21 06:33:03;;;;;;;13.13;4.18;;;;;;;5.02;100.00;101721.38;5199442;28;20423;-69
2020/12/21 06:35:42;;;;;;;14.93;4.30;;;;;;;5.05;100.00;101724.66;5199953;28;20026;-69
2020/12/21 06:38:13;;;;;;;17.90;3.75;;;;;;;5.06;100.00;101721.16;5200770;28;20054;-69
2020/12/21 06:40:44;;;;;;;10.82;4.18;;;;;;;5.13;100.00;101726.91;5200293;28;20373;-69
2020/12/21 06:43:17;;;;;;;15.95;4.20;;;;;;;5.21;100.00;101729.13;5200359;28;20483;-69
2020/12/21 06:45:48;;;;;;;13.30;3.90;;;;;;;5.23;100.00;101719.53;5200161;28;20025;-69
2020/12/21 06:48:23;;;;;;;17.70;4.82;;;;;;;5.27;100.00;101708.06;5197099;28;20392;-70
2020/12/21 06:50:54;;;;;;;15.70;4.07;;;;;;;5.31;100.00;101710.44;5200271;28;20034;-69
2020/12/21 06:53:25;;;;;;;13.18;4.20;;;;;;;5.32;100.00;101708.66;5200462;28;20479;-70
2020/12/21 06:55:56;;;;;;;13.63;4.80;;;;;;;5.34;100.00;101707.69;5199953;28;20026;-69
2020/12/21 06:58:34;;;;;;;17.17;4.32;;;;;;;5.40;100.00;101711.72;5199635;28;20027;-69
2020/12/21 07:01:06;;;;;;;10.13;3.92;;;;;;;5.43;100.00;101705.53;5185100;28;20403;-70
2020/12/21 07:03:38;;;;;;;15.50;4.40;;;;;;;5.47;100.00;101704.47;5191821;28;20030;-69
2020/12/21 07:06:09;;;;;;;16.33;4.50;;;;;;;5.49;100.00;101705.22;5199577;28;20088;-69
2020/12/21 07:08:43;;;;;;;15.68;4.60;;;;;;;5.48;100.00;101704.38;5202706;28;20558;-70
2020/12/21 07:11:21;;;;;;;13.55;4.18;;;;;;;5.50;100.00;101702.56;5201814;28;20040;-69
2020/12/21 07:13:54;;;;;;;11.73;4.20;;;;;;;5.52;100.00;101700.72;5205424;28;20030;-69
2020/12/21 07:16:26;;;;;;;16.88;4.88;;;;;;;5.58;100.00;101709.97;5199112;28;20042;-69
2020/12/21 07:18:57;;;;;;;9.20;3.28;;;;;;;5.58;100.00;101707.38;5193941;28;20034;-69
2020/12/21 07:21:30;;;;;;;13.63;4.10;;;;;;;5.58;100.00;101710.81;5192895;28;20208;-70
2020/12/21 07:24:01;;;;;;;22.23;4.55;;;;;;;5.64;100.00;101706.22;5216071;28;20027;-67
2020/12/21 07:26:33;;;;;;;12.82;4.13;;;;;;;5.65;100.00;101700.13;5202439;28;20038;-69
2020/12/21 07:29:04;;;;;;;10.32;3.60;;;;;;;5.68;100.00;101699.94;5199868;28;20038;-69
2020/12/21 07:31:35;;;;;;;15.10;4.32;;;;;;;5.69;100.00;101699.88;5199180;28;20034;-69
2020/12/21 07:34:07;;;;;;;11.32;3.70;;;;;;;5.74;100.00;101692.69;5208885;28;20465;-70
2020/12/21 07:36:38;;;;;;;13.13;3.85;;;;;;;5.72;100.00;101699.72;5200722;28;20396;-69
2020/12/21 07:39:12;;;;;;;9.43;3.50;;;;;;;5.77;100.00;101691.69;5198310;28;21101;-70
2020/12/21 07:41:46;;;;;;;14.45;3.40;;;;;;;5.73;100.00;101678.00;5203546;28;20083;-69
2020/12/21 07:44:34;;;;;;;12.75;4.07;;;;;;;5.83;100.00;101691.34;5201631;28;20022;-69
2020/12/21 07:47:07;;;;;;;12.02;3.70;;;;;;;5.86;100.00;101686.84;5195699;28;20046;-69
2020/12/21 07:49:38;;;;;;;12.50;3.75;;;;;;;5.85;100.00;101674.78;5201034;28;20058;-69
2020/12/21 07:52:10;;;;;;;11.55;3.65;;;;;;;5.91;100.00;101673.63;5198631;28;20040;-69
2020/12/21 07:54:43;;;;;;;14.38;3.60;;;;;;;5.96;100.00;101678.63;5201701;28;20033;-68
2020/12/21 07:57:18;;;;;;;11.75;3.67;;;;;;;5.95;100.00;101677.78;5202396;28;20038;-68
2020/12/21 07:59:58;;;;;;;9.70;3.42;;;;;;;5.93;100.00;101671.81;5201337;28;20033;-69
2020/12/21 08:02:29;;;;;;;11.90;3.47;;;;;;;6.04;100.00;101673.84;5199715;28;20061;-69
2020/12/21 08:05:01;;;;;;;11.30;3.92;;;;;;;6.06;100.00;101674.59;5199193;28;20054;-68
2020/12/21 08:07:33;;;;;;;15.52;3.92;;;;;;;6.11;100.00;101679.56;5198179;28;20506;-69
2020/12/21 08:10:04;;;;;;;13.07;3.63;;;;;;;6.11;100.00;101674.38;5197733;28;20455;-69
2020/12/21 08:12:36;;;;;;;12.50;3.83;;;;;;;6.13;100.00;101665.53;5202402;28;20034;-69
2020/12/21 08:15:08;;;;;;;13.60;3.55;;;;;;;6.18;100.00;101670.53;5197915;28;20018;-69
2020/12/21 08:17:40;;;;;;;10.43;4.03;;;;;;;6.15;100.00;101661.13;5202428;28;20030;-69
2020/12/21 08:20:11;;;;;;;9.60;3.55;;;;;;;6.20;100.00;101671.28;5200262;28;20856;-69
2020/12/21 08:22:43;;;;;;;10.93;3.75;;;;;;;6.18;100.00;101662.72;5195825;28;20037;-69
2020/12/21 08:25:15;;;;;;;11.82;3.90;;;;;;;6.25;100.00;101674.47;5201826;28;20021;-69
2020/12/21 08:27:51;;;;;;;8.98;3.40;;;;;;;6.27;100.00;101670.03;5201831;28;20030;-69
2020/12/21 08:30:23;;;;;;;12.40;3.97;;;;;;;6.27;100.00;101667.41;5200020;28;20200;-68
2020/12/21 08:32:57;;;;;;;9.70;3.17;;;;;;;6.27;100.00;101659.63;5202163;28;20399;-69
2020/12/21 08:35:29;;;;;;;11.75;3.75;;;;;;;6.26;100.00;101661.38;5200921;28;20030;-70
2020/12/21 08:38:07;;;;;;;11.57;4.05;;;;;;;6.26;100.00;101652.75;5199772;28;20050;-69
2020/12/21 08:40:40;;;;;;;11.00;3.50;;;;;;;6.28;100.00;101651.72;5199208;28;20034;-69
2020/12/21 08:43:11;;;;;;;13.05;4.38;;;;;;;6.36;100.00;101660.88;5200908;28;20034;-70
2020/12/21 08:45:42;;;;;;;11.70;3.72;;;;;;;6.41;100.00;101659.72;5196795;28;20037;-69
2020/12/21 08:48:14;;;;;;;9.00;3.30;;;;;;;6.42;100.00;101660.56;5200195;28;20129;-69
2020/12/21 08:50:45;;;;;;;12.02;3.88;;;;;;;6.44;100.00;101648.28;5197360;28;20109;-69
2020/12/21 08:53:16;;;;;;;13.02;4.10;;;;;;;6.45;100.00;101648.22;5200237;28;20427;-69
2020/12/21 08:55:47;;;;;;;10.90;3.40;;;;;;;6.48;100.00;101640.25;5202246;28;20391;-69
2020/12/21 08:58:19;;;;;;;8.30;3.47;;;;;;;6.50;100.00;101645.34;5200531;28;20053;-69
2020/12/21 09:00:50;;;;;;;11.68;3.83;;;;;;;6.52;100.00;101641.75;5197826;28;20037;-69
2020/12/21 09:03:21;;;;;;;15.25;3.88;;;;;;;6.54;100.00;101636.44;5201894;28;20036;-72
2020/12/21 09:05:52;;;;;;;13.32;4.28;;;;;;;6.55;100.00;101643.31;5197616;28;20034;-70
2020/12/21 09:08:24;;;;;;;8.93;3.90;;;;;;;6.55;100.00;101630.31;5200356;28;20101;-70
2020/12/21 09:10:55;;;;;;;14.23;3.97;;;;;;;6.56;100.00;101629.41;5200254;28;20036;-70
2020/12/21 09:13:27;;;;;;;11.55;4.03;;;;;;;6.58;100.00;101632.75;5198942;28;20030;-70
2020/12/21 09:15:58;;;;;;;11.25;4.50;;;;;;;6.63;100.00;101622.06;5203650;28;20022;-69
2020/12/21 09:18:29;;;;;;;11.82;3.65;;;;;;;6.68;100.00;101620.06;5202123;28;20490;-70
2020/12/21 09:21:01;;;;;;;12.48;4.60;;;;;;;6.70;100.00;101619.03;5200600;28;20452;-70
2020/12/21 09:23:33;;;;;;;9.80;3.80;;;;;;;6.75;100.00;101626.63;5198692;28;20045;-70
2020/12/21 09:26:04;;;;;;;12.50;4.47;;;;;;;6.77;100.00;101615.16;5201134;28;20049;-70
2020/12/21 09:28:35;;;;;;;13.45;4.13;;;;;;;6.78;100.00;101610.78;5200544;28;20026;-70
2020/12/21 09:31:09;;;;;;;16.27;4.72;;;;;;;6.80;100.00;101609.78;5202083;28;20432;-70
2020/12/21 09:33:40;;;;;;;;;;;;;;;6.87;100.00;101605.09;5199700;28;20022;-70
2020/12/21 09:36:11;;;;;;;9.63;4.03;;;;;;;6.87;100.00;101592.06;5200322;28;20282;-69
2020/12/21 09:38:47;;;;;;;12.18;3.70;;;;;;;6.88;100.00;101585.06;5222683;22;20085;-71
2020/12/21 09:41:20;;;;;;;14.10;4.05;;;;;;;6.90;100.00;101586.69;5215477;28;20367;-71
2020/12/21 09:43:51;;;;;;;9.75;3.75;;;;;;;6.91;100.00;101588.34;5224297;28;20496;-71
2020/12/21 09:46:24;;;;;;;10.45;3.90;;;;;;;6.94;100.00;101589.94;5225474;28;20049;-71
2020/12/21 09:48:55;;;;;;;13.20;4.10;;;;;;;6.97;100.00;101593.22;5224639;28;20022;-69
2020/12/21 09:51:26;;;;;;;12.38;4.05;;;;;;;7.01;100.00;101586.06;5225345;28;20040;-70
2020/12/21 09:53:58;;;;;;;11.82;3.40;;;;;;;7.03;100.00;101585.03;5229618;28;20026;-70
2020/12/21 09:56:30;;;;;;;10.10;3.88;;;;;;;7.10;100.00;101587.28;5226104;28;20033;-70
2020/12/21 09:59:01;;;;;;;10.77;3.25;;;;;;;7.12;100.00;101583.66;5224252;28;20022;-70
2020/12/21 10:01:32;;;;;;;9.60;3.47;;;;;;;7.18;100.00;101577.25;5223614;28;20076;-70
2020/12/21 10:04:03;;;;;;;13.30;4.30;;;;;;;7.21;100.00;101575.31;5226190;28;20025;-69
2020/12/21 10:06:35;;;;;;;14.43;3.63;;;;;;;7.24;100.00;101562.09;5213497;28;20073;-69
2020/12/21 10:09:06;;;;;;;9.73;3.53;;;;;;;7.27;100.00;101567.13;5222176;28;20029;-70
2020/12/21 10:11:37;;;;;;;10.88;3.38;;;;;;;7.31;100.00;101554.72;5219912;28;20061;-69
2020/12/21 10:14:08;;;;;;;11.40;3.80;;;;;;;7.35;100.00;101552.78;5222497;28;20372;-69
2020/12/21 10:16:40;;;;;;;10.68;3.35;;;;;;;7.34;100.00;101556.31;5234839;28;21252;-69
2020/12/21 10:19:11;;;;;;;8.95;3.90;;;;;;;7.37;100.00;101543.13;5224364;28;20033;-69
2020/12/21 10:21:42;;;;;;;8.52;3.28;;;;;;;7.38;100.00;101536.97;5221870;28;20026;-70
2020/12/21 10:24:14;;;;;;;10.15;3.30;;;;;;;7.35;100.00;101524.09;5222572;28;20025;-70
2020/12/21 10:26:45;;;;;;;11.25;3.42;;;;;;;7.39;100.00;101526.47;5220306;28;20029;-71
2020/12/21 10:29:16;;;;;;;8.20;3.00;;;;;;;7.42;100.00;101521.03;5224730;28;20021;-69
2020/12/21 10:31:47;;;;;;;11.13;3.22;;;;;;;7.46;100.00;101512.13;5217076;28;20112;-70
2020/12/21 10:34:19;;;;;;;11.32;3.38;;;;;;;7.47;100.00;101503.38;5222302;28;20348;-70
2020/12/21 10:36:51;;;;;;;15.35;3.35;;;;;;;7.48;99.80;101502.44;5220144;28;20038;-70
2020/12/21 10:39:23;;;;;;;8.80;2.90;;;;;;;7.52;98.83;101503.06;5220657;28;20042;-70
2020/12/21 10:41:54;;;;;;;8.60;3.30;;;;;;;7.54;98.75;101483.81;5224282;28;20033;-69
2020/12/21 10:44:25;;;;;;;9.10;2.70;;;;;;;7.56;98.48;101466.28;5222452;28;20045;-69
2020/12/21 10:46:57;;;;;;;12.05;3.08;;;;;;;7.60;97.92;101464.31;5223108;28;20022;-69
2020/12/21 10:49:29;;;;;;;10.17;2.60;;;;;;;7.62;98.05;101462.47;5220717;28;20018;-69
2020/12/21 10:52:01;;;;;;;8.88;2.70;;;;;;;7.63;98.07;101452.88;5220230;28;20049;-69
2020/12/21 10:54:32;;;;;;;7.97;2.97;;;;;;;7.65;98.29;101443.16;5223201;28;20076;-69
2020/12/21 10:57:06;;;;;;;8.15;2.88;;;;;;;7.67;97.28;101442.16;5221374;28;20026;-69
2020/12/21 10:59:37;;;;;;;7.30;2.70;;;;;;;7.66;97.65;101430.03;5223515;28;20025;-70
2020/12/21 11:02:08;;;;;;;9.48;2.65;;;;;;;7.70;97.38;101428.09;5217157;28;20478;-71
2020/12/21 11:04:39;;;;;;;8.23;2.90;;;;;;;7.69;99.10;101429.00;5219685;28;20025;-71
2020/12/21 11:07:11;;;;;;;9.05;3.08;;;;;;;7.75;96.59;101426.00;5212240;28;20091;-71
2020/12/21 11:09:42;;;;;;;8.60;3.33;;;;;;;7.74;97.32;101421.75;5222067;28;20334;-71
2020/12/21 11:12:13;;;;;;;5.20;2.67;;;;;;;7.71;97.81;101403.66;5223387;28;20482;-71
2020/12/21 11:14:44;;;;;;;8.82;3.13;;;;;;;7.73;97.97;101399.22;5222093;28;20441;-71
2020/12/21 11:17:16;;;;;;;5.63;2.42;;;;;;;7.75;96.03;101395.53;5220844;28;20503;-72
2020/12/21 11:19:48;;;;;;;5.72;2.33;;;;;;;7.77;97.18;101395.47;5222011;28;20022;-71
2020/12/21 11:22:19;;;;;;;6.03;2.38;;;;;;;7.78;97.37;101379.72;5220455;28;20025;-71
2020/12/21 11:24:50;;;;;;;7.95;2.58;;;;;;;7.81;97.49;101378.69;5218010;28;20049;-71
2020/12/21 11:27:22;;;;;;;7.85;2.65;;;;;;;7.84;96.61;101378.50;5224319;28;20025;-71
2020/12/21 11:29:53;;;;;;;6.60;2.45;;;;;;;7.86;97.11;101376.59;5220516;28;20030;-71
2020/12/21 11:32:24;;;;;;;6.28;2.30;;;;;;;7.85;98.13;101372.31;5224038;28;20377;-71
2020/12/21 11:34:56;;;;;;;8.85;2.80;;;;;;;7.87;95.79;101367.81;5224866;28;20393;-71
2020/12/21 11:37:27;;;;;;;6.20;2.50;;;;;;;7.85;96.66;101361.88;5223895;28;20129;-71
2020/12/21 11:39:58;;;;;;;6.38;2.45;;;;;;;7.86;95.95;101363.56;5220101;28;20030;-71
2020/12/21 11:42:29;;;;;;;6.80;2.58;;;;;;;7.84;96.38;101359.38;5219609;28;20026;-71